createdAt,value
2023-01-07T00:00:03.801Z,981.57
2023-01-07T00:01:03.681Z,981.57
2023-01-07T00:02:03.695Z,981.46
2023-01-07T00:03:03.673Z,981.38
2023-01-07T00:04:03.735Z,981.49
2023-01-07T00:05:03.646Z,981.49
2023-01-07T00:06:03.485Z,981.57
2023-01-07T00:07:03.560Z,981.57
2023-01-07T00:08:03.559Z,981.44
2023-01-07T00:09:03.609Z,981.49
2023-01-07T00:10:03.585Z,981.57
2023-01-07T00:11:03.703Z,981.38
2023-01-07T00:12:03.618Z,981.38
2023-01-07T00:13:03.509Z,981.38
2023-01-07T00:14:03.806Z,981.21
2023-01-07T00:15:03.860Z,981.21
2023-01-07T00:16:03.053Z,981.27
2023-01-07T00:17:03.966Z,981.24
2023-01-07T00:18:03.903Z,981.21
2023-01-07T00:19:03.846Z,981.21
2023-01-07T00:20:03.719Z,981.13
2023-01-07T00:21:03.651Z,981.19
2023-01-07T00:22:03.711Z,981.16
2023-01-07T00:23:03.607Z,981.13
2023-01-07T00:24:03.760Z,981.16
2023-01-07T00:25:03.672Z,981.10
2023-01-07T00:26:03.655Z,981.10
2023-01-07T00:27:03.606Z,980.99
2023-01-07T00:28:03.490Z,981.10
2023-01-07T00:29:03.415Z,981.10
2023-01-07T00:30:03.347Z,981.27
2023-01-07T00:31:03.513Z,981.15
2023-01-07T00:32:03.306Z,981.01
2023-01-07T00:33:03.310Z,981.04
2023-01-07T00:34:03.312Z,981.18
2023-01-07T00:35:03.205Z,981.01
2023-01-07T00:36:03.219Z,981.09
2023-01-07T00:37:03.195Z,981.12
2023-01-07T00:38:03.229Z,981.01
2023-01-07T00:39:03.251Z,981.07
2023-01-07T00:40:03.288Z,980.98
2023-01-07T00:41:03.337Z,981.07
2023-01-07T00:42:03.342Z,980.98
2023-01-07T00:43:03.419Z,981.01
2023-01-07T00:44:03.375Z,980.87
2023-01-07T00:45:03.332Z,981.07
2023-01-07T00:46:03.290Z,980.90
2023-01-07T00:47:03.845Z,980.95
2023-01-07T00:48:03.831Z,981.04
2023-01-07T00:49:03.725Z,980.98
2023-01-07T00:50:03.699Z,980.92
2023-01-07T00:51:03.663Z,980.87
2023-01-07T00:52:03.511Z,980.90
2023-01-07T00:53:03.608Z,980.75
2023-01-07T00:54:03.596Z,980.81
2023-01-07T00:55:03.433Z,980.87
2023-01-07T00:56:03.597Z,980.81
2023-01-07T00:57:03.511Z,980.75
2023-01-07T00:58:03.341Z,980.84
2023-01-07T00:59:03.541Z,980.72
2023-01-07T01:00:03.493Z,980.81
2023-01-07T01:01:03.728Z,980.90
2023-01-07T01:02:03.666Z,980.87
2023-01-07T01:03:03.725Z,980.95
2023-01-07T01:04:03.781Z,980.87
2023-01-07T01:05:03.691Z,980.98
2023-01-07T01:06:03.765Z,980.95
2023-01-07T01:07:03.740Z,980.98
2023-01-07T01:08:03.765Z,981.01
2023-01-07T01:09:03.727Z,980.84
2023-01-07T01:10:03.873Z,980.95
2023-01-07T01:11:03.705Z,980.84
2023-01-07T01:12:03.720Z,980.95
2023-01-07T01:13:03.799Z,981.04
2023-01-07T01:14:03.719Z,980.87
2023-01-07T01:15:03.740Z,981.07
2023-01-07T01:16:03.918Z,980.98
2023-01-07T01:17:03.702Z,981.01
2023-01-07T01:18:03.703Z,980.98
2023-01-07T01:19:03.765Z,980.95
2023-01-07T01:20:03.183Z,980.93
2023-01-07T01:21:03.192Z,981.01
2023-01-07T01:22:03.356Z,980.93
2023-01-07T01:23:03.205Z,981.01
2023-01-07T01:24:03.171Z,980.95
2023-01-07T01:25:03.101Z,980.98
2023-01-07T01:26:03.006Z,981.01
2023-01-07T01:27:02.985Z,981.04
2023-01-07T01:28:02.886Z,981.04
2023-01-07T01:29:02.931Z,981.07
2023-01-07T01:30:03.908Z,981.07
2023-01-07T01:31:03.935Z,980.93
2023-01-07T01:32:03.643Z,981.12
2023-01-07T01:33:03.803Z,981.12
2023-01-07T01:34:03.592Z,981.21
2023-01-07T01:35:03.559Z,981.06
2023-01-07T01:36:03.623Z,981.12
2023-01-07T01:37:03.546Z,981.01
2023-01-07T01:38:03.532Z,981.09
2023-01-07T01:39:03.451Z,980.98
2023-01-07T01:40:03.636Z,981.12
2023-01-07T01:41:03.424Z,981.15
2023-01-07T01:42:03.383Z,981.09
2023-01-07T01:43:03.301Z,981.03
2023-01-07T01:44:03.257Z,981.00
2023-01-07T01:45:03.377Z,980.95
2023-01-07T01:46:03.107Z,980.95
2023-01-07T01:47:03.403Z,980.97
2023-01-07T01:48:03.224Z,980.95
2023-01-07T01:49:03.225Z,981.12
2023-01-07T01:50:03.122Z,980.97
2023-01-07T01:51:03.161Z,981.03
2023-01-07T01:52:03.052Z,980.97
2023-01-07T01:53:03.086Z,980.91
2023-01-07T01:54:03.127Z,980.94
2023-01-07T01:55:03.121Z,981.06
2023-01-07T01:56:03.117Z,981.00
2023-01-07T01:57:03.077Z,981.06
2023-01-07T01:58:03.096Z,981.03
2023-01-07T01:59:02.978Z,980.91
2023-01-07T02:00:02.912Z,981.22
2023-01-07T02:01:03.313Z,980.97
2023-01-07T02:02:03.565Z,980.97
2023-01-07T02:03:03.215Z,980.97
2023-01-07T02:04:03.345Z,980.80
2023-01-07T02:05:03.268Z,980.88
2023-01-07T02:06:03.202Z,981.03
2023-01-07T02:07:03.171Z,981.03
2023-01-07T02:08:03.160Z,980.97
2023-01-07T02:09:03.142Z,981.00
2023-01-07T02:10:02.962Z,980.94
2023-01-07T02:11:03.045Z,981.00
2023-01-07T02:12:02.939Z,980.94
2023-01-07T02:13:03.337Z,980.94
2023-01-07T02:14:03.257Z,980.91
2023-01-07T02:15:03.270Z,981.08
2023-01-07T02:16:03.369Z,981.02
2023-01-07T02:17:03.279Z,981.02
2023-01-07T02:18:03.244Z,980.94
2023-01-07T02:19:03.145Z,980.88
2023-01-07T02:20:03.264Z,981.02
2023-01-07T02:21:03.219Z,980.94
2023-01-07T02:22:03.077Z,980.91
2023-01-07T02:23:03.054Z,980.99
2023-01-07T02:24:03.185Z,980.82
2023-01-07T02:25:03.195Z,980.82
2023-01-07T02:26:03.090Z,981.05
2023-01-07T02:27:03.052Z,981.05
2023-01-07T02:28:03.156Z,980.74
2023-01-07T02:29:03.044Z,980.88
2023-01-07T02:30:03.039Z,980.91
2023-01-07T02:31:02.962Z,980.85
2023-01-07T02:32:03.851Z,980.91
2023-01-07T02:33:03.018Z,980.91
2023-01-07T02:34:03.020Z,980.85
2023-01-07T02:35:03.051Z,980.85
2023-01-07T02:36:03.835Z,980.88
2023-01-07T02:37:03.766Z,980.82
2023-01-07T02:38:03.796Z,980.82
2023-01-07T02:39:03.701Z,980.76
2023-01-07T02:40:03.571Z,980.65
2023-01-07T02:41:03.461Z,980.76
2023-01-07T02:42:03.387Z,980.76
2023-01-07T02:43:03.398Z,980.76
2023-01-07T02:44:03.235Z,980.59
2023-01-07T02:45:03.266Z,980.65
2023-01-07T02:46:03.496Z,980.76
2023-01-07T02:47:03.126Z,980.82
2023-01-07T02:48:03.095Z,980.68
2023-01-07T02:49:03.029Z,980.67
2023-01-07T02:50:02.973Z,980.56
2023-01-07T02:51:03.857Z,980.59
2023-01-07T02:52:03.042Z,980.59
2023-01-07T02:53:03.082Z,980.65
2023-01-07T02:54:03.213Z,980.73
2023-01-07T02:55:03.083Z,980.67
2023-01-07T02:56:03.195Z,980.62
2023-01-07T02:57:03.033Z,980.56
2023-01-07T02:58:03.050Z,980.76
2023-01-07T02:59:03.902Z,980.70
2023-01-07T03:00:02.951Z,980.62
2023-01-07T03:01:03.235Z,980.62
2023-01-07T03:02:03.148Z,980.56
2023-01-07T03:03:03.870Z,980.62
2023-01-07T03:04:04.113Z,980.59
2023-01-07T03:05:03.855Z,980.64
2023-01-07T03:06:02.971Z,980.56
2023-01-07T03:07:03.088Z,980.59
2023-01-07T03:08:03.011Z,980.56
2023-01-07T03:09:02.932Z,980.53
2023-01-07T03:10:03.911Z,980.75
2023-01-07T03:11:03.805Z,980.67
2023-01-07T03:12:03.728Z,980.47
2023-01-07T03:13:03.680Z,980.67
2023-01-07T03:14:03.598Z,980.61
2023-01-07T03:15:03.705Z,980.55
2023-01-07T03:16:03.069Z,980.70
2023-01-07T03:17:03.163Z,980.58
2023-01-07T03:18:03.078Z,980.61
2023-01-07T03:19:02.961Z,980.55
2023-01-07T03:20:03.922Z,980.44
2023-01-07T03:21:03.862Z,980.53
2023-01-07T03:22:03.149Z,980.53
2023-01-07T03:23:03.134Z,980.53
2023-01-07T03:24:03.069Z,980.44
2023-01-07T03:25:03.198Z,980.41
2023-01-07T03:26:03.204Z,980.41
2023-01-07T03:27:03.151Z,980.41
2023-01-07T03:28:03.176Z,980.41
2023-01-07T03:29:03.255Z,980.38
2023-01-07T03:30:03.183Z,980.41
2023-01-07T03:31:03.037Z,980.47
2023-01-07T03:32:03.178Z,980.35
2023-01-07T03:33:03.003Z,980.41
2023-01-07T03:34:03.863Z,980.47
2023-01-07T03:35:02.941Z,980.41
2023-01-07T03:36:02.920Z,980.44
2023-01-07T03:37:02.942Z,980.53
2023-01-07T03:38:02.957Z,980.44
2023-01-07T03:39:03.766Z,980.55
2023-01-07T03:40:03.828Z,980.41
2023-01-07T03:41:03.747Z,980.44
2023-01-07T03:42:03.726Z,980.44
2023-01-07T03:43:03.684Z,980.47
2023-01-07T03:44:03.665Z,980.55
2023-01-07T03:45:03.544Z,980.36
2023-01-07T03:46:03.702Z,980.44
2023-01-07T03:47:03.555Z,980.39
2023-01-07T03:48:03.424Z,980.56
2023-01-07T03:49:03.313Z,980.30
2023-01-07T03:50:03.399Z,980.33
2023-01-07T03:51:03.250Z,980.36
2023-01-07T03:52:03.265Z,980.44
2023-01-07T03:53:03.177Z,980.47
2023-01-07T03:54:03.072Z,980.44
2023-01-07T03:55:02.983Z,980.44
2023-01-07T03:56:02.978Z,980.44
2023-01-07T03:57:02.969Z,980.47
2023-01-07T03:58:03.108Z,980.45
2023-01-07T03:59:03.140Z,980.56
2023-01-07T04:00:03.000Z,980.47
2023-01-07T04:01:04.201Z,980.39
2023-01-07T04:02:04.109Z,980.39
2023-01-07T04:03:03.664Z,980.31
2023-01-07T04:04:04.043Z,980.36
2023-01-07T04:05:03.539Z,980.42
2023-01-07T04:06:03.531Z,980.45
2023-01-07T04:07:03.663Z,980.53
2023-01-07T04:08:03.628Z,980.48
2023-01-07T04:09:03.486Z,980.56
2023-01-07T04:10:03.442Z,980.36
2023-01-07T04:11:03.354Z,980.31
2023-01-07T04:12:03.340Z,980.45
2023-01-07T04:13:03.312Z,980.30
2023-01-07T04:14:03.359Z,980.30
2023-01-07T04:15:03.387Z,980.30
2023-01-07T04:16:03.420Z,980.42
2023-01-07T04:17:03.382Z,980.30
2023-01-07T04:18:03.444Z,980.27
2023-01-07T04:19:03.343Z,980.39
2023-01-07T04:20:03.562Z,980.30
2023-01-07T04:21:03.282Z,980.36
2023-01-07T04:22:03.208Z,980.44
2023-01-07T04:23:03.218Z,980.36
2023-01-07T04:24:03.216Z,980.30
2023-01-07T04:25:02.959Z,980.25
2023-01-07T04:26:02.959Z,980.25
2023-01-07T04:27:03.887Z,980.30
2023-01-07T04:28:03.845Z,980.33
2023-01-07T04:29:03.760Z,980.30
2023-01-07T04:30:03.701Z,980.27
2023-01-07T04:31:03.914Z,980.14
2023-01-07T04:32:03.635Z,980.47
2023-01-07T04:33:03.586Z,980.42
2023-01-07T04:34:03.614Z,980.30
2023-01-07T04:35:03.685Z,980.17
2023-01-07T04:36:03.636Z,980.30
2023-01-07T04:37:03.600Z,980.25
2023-01-07T04:38:03.531Z,980.36
2023-01-07T04:39:03.420Z,980.28
2023-01-07T04:40:03.452Z,980.30
2023-01-07T04:41:03.424Z,980.30
2023-01-07T04:42:03.336Z,980.25
2023-01-07T04:43:03.235Z,980.28
2023-01-07T04:44:03.309Z,980.30
2023-01-07T04:45:03.337Z,980.08
2023-01-07T04:46:03.481Z,980.25
2023-01-07T04:47:03.288Z,980.25
2023-01-07T04:48:03.187Z,980.30
2023-01-07T04:49:03.280Z,980.25
2023-01-07T04:50:03.234Z,980.22
2023-01-07T04:51:03.109Z,980.22
2023-01-07T04:52:02.937Z,980.17
2023-01-07T04:53:02.920Z,980.03
2023-01-07T04:54:02.988Z,980.17
2023-01-07T04:55:02.928Z,980.27
2023-01-07T04:56:03.879Z,980.14
2023-01-07T04:57:02.901Z,980.03
2023-01-07T04:58:03.892Z,980.06
2023-01-07T04:59:03.814Z,980.30
2023-01-07T05:00:02.908Z,980.11
2023-01-07T05:01:04.140Z,979.94
2023-01-07T05:02:04.127Z,980.22
2023-01-07T05:03:03.769Z,980.00
2023-01-07T05:04:03.895Z,980.06
2023-01-07T05:05:03.608Z,979.97
2023-01-07T05:06:03.700Z,980.11
2023-01-07T05:07:03.012Z,979.97
2023-01-07T05:08:03.050Z,980.03
2023-01-07T05:09:03.039Z,980.03
2023-01-07T05:10:03.096Z,979.94
2023-01-07T05:11:02.946Z,980.00
2023-01-07T05:12:03.040Z,980.06
2023-01-07T05:13:03.321Z,979.89
2023-01-07T05:14:02.975Z,980.00
2023-01-07T05:15:03.043Z,979.94
2023-01-07T05:16:03.065Z,979.97
2023-01-07T05:17:03.246Z,979.92
2023-01-07T05:18:03.039Z,979.94
2023-01-07T05:19:02.944Z,979.92
2023-01-07T05:20:03.852Z,979.97
2023-01-07T05:21:03.847Z,980.06
2023-01-07T05:22:03.826Z,980.17
2023-01-07T05:23:03.822Z,980.03
2023-01-07T05:24:04.055Z,980.06
2023-01-07T05:25:04.145Z,980.00
2023-01-07T05:26:03.971Z,980.14
2023-01-07T05:27:03.803Z,979.92
2023-01-07T05:28:03.905Z,980.00
2023-01-07T05:29:03.754Z,980.00
2023-01-07T05:30:03.735Z,979.95
2023-01-07T05:31:03.810Z,980.11
2023-01-07T05:32:03.608Z,980.06
2023-01-07T05:33:03.512Z,980.12
2023-01-07T05:34:03.477Z,979.97
2023-01-07T05:35:03.494Z,980.06
2023-01-07T05:36:03.452Z,980.14
2023-01-07T05:37:03.335Z,980.00
2023-01-07T05:38:03.311Z,980.09
2023-01-07T05:39:03.214Z,979.95
2023-01-07T05:40:03.150Z,980.00
2023-01-07T05:41:03.169Z,980.00
2023-01-07T05:42:03.216Z,980.06
2023-01-07T05:43:03.236Z,980.06
2023-01-07T05:44:03.229Z,980.06
2023-01-07T05:45:03.199Z,980.06
2023-01-07T05:46:03.226Z,980.06
2023-01-07T05:47:03.153Z,980.03
2023-01-07T05:48:03.024Z,980.00
2023-01-07T05:49:03.056Z,980.03
2023-01-07T05:50:03.003Z,980.12
2023-01-07T05:51:03.042Z,980.09
2023-01-07T05:52:03.035Z,979.92
2023-01-07T05:53:02.988Z,980.12
2023-01-07T05:54:02.917Z,980.11
2023-01-07T05:55:02.995Z,980.17
2023-01-07T05:56:02.905Z,980.17
2023-01-07T05:57:02.948Z,980.06
2023-01-07T05:58:03.882Z,980.06
2023-01-07T05:59:02.893Z,979.94
2023-01-07T06:00:03.875Z,980.14
2023-01-07T06:01:03.935Z,979.94
2023-01-07T06:02:03.739Z,979.97
2023-01-07T06:03:03.726Z,980.03
2023-01-07T06:04:03.711Z,980.00
2023-01-07T06:05:03.809Z,979.94
2023-01-07T06:06:03.589Z,980.11
2023-01-07T06:07:03.678Z,979.94
2023-01-07T06:08:03.672Z,979.92
2023-01-07T06:09:03.609Z,979.89
2023-01-07T06:10:03.695Z,979.94
2023-01-07T06:11:03.530Z,979.89
2023-01-07T06:12:03.620Z,979.94
2023-01-07T06:13:03.537Z,979.81
2023-01-07T06:14:03.543Z,979.89
2023-01-07T06:15:03.513Z,979.84
2023-01-07T06:16:03.626Z,979.97
2023-01-07T06:17:03.417Z,979.86
2023-01-07T06:18:03.395Z,979.97
2023-01-07T06:19:03.280Z,979.84
2023-01-07T06:20:03.247Z,979.88
2023-01-07T06:21:03.197Z,979.88
2023-01-07T06:22:03.119Z,979.78
2023-01-07T06:23:03.099Z,979.86
2023-01-07T06:24:03.078Z,979.86
2023-01-07T06:25:02.985Z,979.86
2023-01-07T06:26:03.005Z,979.86
2023-01-07T06:27:03.419Z,979.84
2023-01-07T06:28:03.213Z,979.84
2023-01-07T06:29:02.900Z,979.72
2023-01-07T06:30:03.880Z,979.78
2023-01-07T06:31:03.048Z,979.86
2023-01-07T06:32:03.793Z,979.72
2023-01-07T06:33:03.282Z,979.84
2023-01-07T06:34:03.949Z,979.70
2023-01-07T06:35:03.894Z,979.64
2023-01-07T06:36:02.986Z,979.75
2023-01-07T06:37:03.860Z,979.75
2023-01-07T06:38:03.013Z,979.70
2023-01-07T06:39:03.356Z,979.70
2023-01-07T06:40:08.954Z,979.61
2023-01-07T06:41:03.791Z,979.67
2023-01-07T06:42:03.752Z,979.67
2023-01-07T06:43:03.661Z,979.72
2023-01-07T06:44:03.728Z,979.75
2023-01-07T06:45:03.592Z,979.75
2023-01-07T06:46:03.854Z,979.81
2023-01-07T06:47:03.884Z,979.70
2023-01-07T06:48:03.521Z,979.69
2023-01-07T06:49:03.611Z,979.75
2023-01-07T06:50:03.496Z,979.75
2023-01-07T06:51:03.451Z,979.81
2023-01-07T06:52:03.376Z,979.88
2023-01-07T06:53:03.194Z,979.78
2023-01-07T06:54:03.605Z,979.75
2023-01-07T06:55:03.158Z,979.64
2023-01-07T06:56:03.094Z,979.64
2023-01-07T06:57:03.061Z,979.75
2023-01-07T06:58:03.125Z,979.75
2023-01-07T06:59:03.003Z,979.72
2023-01-07T07:00:03.079Z,979.64
2023-01-07T07:01:02.936Z,979.86
2023-01-07T07:02:03.082Z,979.78
2023-01-07T07:03:03.078Z,979.75
2023-01-07T07:04:03.405Z,979.81
2023-01-07T07:05:03.235Z,979.69
2023-01-07T07:06:03.235Z,979.78
2023-01-07T07:07:03.200Z,980.02
2023-01-07T07:08:03.115Z,979.67
2023-01-07T07:09:03.068Z,979.81
2023-01-07T07:10:03.002Z,979.84
2023-01-07T07:11:03.059Z,979.91
2023-01-07T07:12:03.012Z,979.94
2023-01-07T07:13:03.878Z,979.75
2023-01-07T07:14:03.919Z,979.86
2023-01-07T07:15:03.823Z,979.81
2023-01-07T07:16:03.912Z,979.86
2023-01-07T07:17:03.819Z,979.81
2023-01-07T07:18:03.717Z,979.78
2023-01-07T07:19:03.601Z,979.84
2023-01-07T07:20:03.522Z,979.81
2023-01-07T07:21:03.458Z,979.75
2023-01-07T07:22:05.171Z,979.75
2023-01-07T07:23:03.540Z,979.81
2023-01-07T07:24:03.422Z,979.81
2023-01-07T07:25:03.419Z,979.94
2023-01-07T07:26:03.538Z,979.81
2023-01-07T07:27:03.477Z,979.83
2023-01-07T07:28:03.426Z,979.81
2023-01-07T07:29:03.344Z,979.97
2023-01-07T07:30:03.233Z,979.88
2023-01-07T07:31:08.338Z,979.91
2023-01-07T07:32:03.251Z,979.81
2023-01-07T07:33:03.148Z,979.97
2023-01-07T07:34:03.347Z,979.75
2023-01-07T07:35:02.995Z,979.91
2023-01-07T07:36:03.891Z,979.78
2023-01-07T07:37:03.748Z,979.86
2023-01-07T07:38:03.291Z,979.69
2023-01-07T07:39:03.221Z,979.69
2023-01-07T07:40:03.169Z,979.86
2023-01-07T07:41:03.302Z,979.83
2023-01-07T07:42:03.292Z,979.75
2023-01-07T07:43:13.329Z,979.86
2023-01-07T07:44:03.551Z,979.91
2023-01-07T07:45:03.542Z,979.72
2023-01-07T07:46:03.554Z,979.81
2023-01-07T07:47:03.508Z,979.88
2023-01-07T07:48:03.448Z,979.83
2023-01-07T07:49:03.572Z,979.81
2023-01-07T07:50:03.276Z,979.75
2023-01-07T07:51:03.213Z,979.86
2023-01-07T07:52:03.145Z,979.81
2023-01-07T07:53:03.256Z,979.81
2023-01-07T07:54:03.205Z,979.72
2023-01-07T07:55:26.739Z,979.81
2023-01-07T07:56:02.966Z,979.81
2023-01-07T07:57:02.950Z,979.81
2023-01-07T07:58:03.856Z,979.88
2023-01-07T07:59:02.952Z,979.86
2023-01-07T08:00:03.016Z,979.88
2023-01-07T08:01:03.073Z,979.94
2023-01-07T08:02:04.012Z,979.91
2023-01-07T08:03:03.075Z,979.75
2023-01-07T08:04:03.210Z,979.88
2023-01-07T08:05:03.898Z,979.80
2023-01-07T08:06:03.929Z,979.80
2023-01-07T08:07:03.838Z,979.86
2023-01-07T08:08:04.097Z,979.86
2023-01-07T08:09:02.963Z,979.88
2023-01-07T08:10:03.873Z,979.88
2023-01-07T08:11:03.806Z,979.80
2023-01-07T08:12:03.871Z,979.91
2023-01-07T08:13:03.724Z,979.83
2023-01-07T08:14:03.800Z,979.91
2023-01-07T08:15:03.693Z,979.83
2023-01-07T08:16:03.895Z,979.86
2023-01-07T08:17:03.675Z,979.83
2023-01-07T08:18:03.711Z,979.80
2023-01-07T08:19:03.566Z,979.75
2023-01-07T08:20:03.622Z,979.83
2023-01-07T08:21:03.558Z,979.91
2023-01-07T08:22:03.465Z,979.83
2023-01-07T08:23:03.542Z,979.80
2023-01-07T08:24:03.761Z,979.86
2023-01-07T08:25:03.415Z,979.96
2023-01-07T08:26:03.652Z,979.83
2023-01-07T08:27:03.359Z,979.88
2023-01-07T08:28:03.338Z,979.77
2023-01-07T08:29:03.318Z,979.90
2023-01-07T08:30:03.221Z,979.77
2023-01-07T08:31:03.161Z,979.74
2023-01-07T08:32:03.383Z,979.52
2023-01-07T08:33:03.280Z,979.60
2023-01-07T08:34:03.106Z,979.66
2023-01-07T08:35:03.092Z,979.66
2023-01-07T08:36:14.896Z,979.72
2023-01-07T08:37:03.160Z,979.72
2023-01-07T08:38:03.069Z,979.74
2023-01-07T08:39:03.079Z,979.77
2023-01-07T08:40:06.201Z,979.69
2023-01-07T08:41:02.900Z,979.60
2023-01-07T08:42:03.902Z,979.69
2023-01-07T08:43:03.751Z,979.69
2023-01-07T08:44:03.742Z,979.69
2023-01-07T08:45:03.637Z,979.74
2023-01-07T08:46:03.680Z,979.74
2023-01-07T08:47:03.639Z,979.69
2023-01-07T08:48:03.687Z,979.80
2023-01-07T08:49:03.712Z,979.77
2023-01-07T08:50:03.756Z,979.83
2023-01-07T08:51:03.804Z,979.71
2023-01-07T08:52:03.714Z,979.77
2023-01-07T08:53:03.625Z,979.60
2023-01-07T08:54:03.575Z,979.69
2023-01-07T08:55:03.472Z,979.66
2023-01-07T08:56:03.512Z,979.66
2023-01-07T08:57:03.409Z,979.66
2023-01-07T08:58:03.393Z,979.87
2023-01-07T08:59:03.269Z,979.69
2023-01-07T09:00:03.206Z,979.77
2023-01-07T09:01:03.565Z,979.77
2023-01-07T09:02:03.371Z,979.63
2023-01-07T09:03:03.209Z,979.86
2023-01-07T09:04:03.170Z,979.57
2023-01-07T09:05:03.062Z,979.74
2023-01-07T09:06:03.130Z,979.68
2023-01-07T09:07:03.024Z,979.74
2023-01-07T09:08:03.027Z,979.71
2023-01-07T09:09:02.917Z,979.77
2023-01-07T09:10:03.056Z,979.63
2023-01-07T09:11:02.939Z,979.63
2023-01-07T09:12:03.854Z,979.60
2023-01-07T09:13:03.830Z,979.66
2023-01-07T09:14:04.312Z,979.71
2023-01-07T09:15:03.824Z,979.66
2023-01-07T09:16:03.736Z,979.68
2023-01-07T09:17:03.659Z,979.60
2023-01-07T09:18:03.701Z,979.77
2023-01-07T09:19:03.580Z,979.71
2023-01-07T09:20:03.539Z,979.68
2023-01-07T09:21:03.498Z,979.68
2023-01-07T09:22:03.408Z,979.71
2023-01-07T09:23:03.457Z,979.68
2023-01-07T09:24:03.404Z,979.68
2023-01-07T09:25:03.791Z,979.63
2023-01-07T09:26:03.597Z,979.68
2023-01-07T09:27:03.409Z,979.71
2023-01-07T09:28:03.307Z,979.60
2023-01-07T09:29:03.377Z,979.71
2023-01-07T09:30:03.267Z,979.60
2023-01-07T09:31:03.272Z,979.74
2023-01-07T09:32:03.366Z,979.74
2023-01-07T09:33:03.239Z,979.68
2023-01-07T09:34:03.272Z,979.74
2023-01-07T09:35:03.280Z,979.77
2023-01-07T09:36:03.246Z,979.80
2023-01-07T09:37:03.215Z,979.71
2023-01-07T09:38:03.077Z,979.82
2023-01-07T09:39:03.101Z,979.77
2023-01-07T09:40:02.983Z,979.65
2023-01-07T09:41:02.926Z,979.68
2023-01-07T09:42:02.945Z,979.71
2023-01-07T09:43:04.086Z,979.60
2023-01-07T09:44:05.057Z,979.65
2023-01-07T09:45:02.955Z,979.54
2023-01-07T09:46:03.062Z,979.68
2023-01-07T09:47:03.925Z,979.74
2023-01-07T09:48:03.853Z,979.77
2023-01-07T09:49:03.793Z,979.54
2023-01-07T09:50:03.718Z,979.59
2023-01-07T09:51:03.702Z,979.54
2023-01-07T09:52:03.542Z,979.56
2023-01-07T09:53:03.544Z,979.59
2023-01-07T09:54:03.632Z,979.62
2023-01-07T09:55:03.553Z,979.56
2023-01-07T09:56:13.042Z,979.65
2023-01-07T09:57:03.656Z,979.54
2023-01-07T09:58:03.769Z,979.54
2023-01-07T09:59:03.500Z,979.56
2023-01-07T10:00:03.418Z,979.42
2023-01-07T10:01:03.643Z,979.70
2023-01-07T10:02:03.349Z,979.45
2023-01-07T10:03:03.276Z,979.56
2023-01-07T10:04:03.282Z,979.36
2023-01-07T10:05:03.124Z,979.42
2023-01-07T10:06:03.082Z,979.39
2023-01-07T10:07:02.910Z,979.50
2023-01-07T10:08:32.521Z,979.42
2023-01-07T10:09:02.963Z,979.42
2023-01-07T10:10:02.956Z,979.45
2023-01-07T10:11:02.914Z,979.39
2023-01-07T10:12:02.898Z,979.47
2023-01-07T10:13:02.953Z,979.33
2023-01-07T10:14:03.065Z,979.50
2023-01-07T10:15:02.986Z,979.33
2023-01-07T10:16:04.006Z,979.33
2023-01-07T10:17:03.767Z,979.39
2023-01-07T10:18:03.812Z,979.30
2023-01-07T10:19:03.682Z,979.47
2023-01-07T10:20:03.641Z,979.41
2023-01-07T10:21:03.671Z,979.16
2023-01-07T10:22:03.618Z,979.24
2023-01-07T10:23:03.506Z,979.18
2023-01-07T10:24:03.427Z,979.27
2023-01-07T10:25:03.318Z,979.24
2023-01-07T10:26:03.237Z,979.16
2023-01-07T10:27:03.335Z,979.21
2023-01-07T10:28:03.203Z,979.24
2023-01-07T10:29:03.258Z,979.04
2023-01-07T10:30:03.245Z,979.13
2023-01-07T10:31:03.219Z,979.18
2023-01-07T10:32:03.123Z,979.10
2023-01-07T10:33:03.343Z,979.15
2023-01-07T10:34:03.080Z,979.13
2023-01-07T10:35:03.163Z,979.12
2023-01-07T10:36:03.128Z,979.27
2023-01-07T10:37:07.983Z,979.15
2023-01-07T10:38:03.018Z,979.01
2023-01-07T10:39:03.669Z,979.07
2023-01-07T10:40:08.221Z,979.09
2023-01-07T10:41:08.221Z,979.21
2023-01-07T10:42:03.821Z,978.98
2023-01-07T10:43:03.797Z,979.18
2023-01-07T10:44:03.909Z,979.21
2023-01-07T10:45:03.790Z,979.18
2023-01-07T10:46:03.899Z,979.03
2023-01-07T10:47:03.766Z,979.09
2023-01-07T10:48:03.797Z,978.98
2023-01-07T10:49:03.762Z,978.95
2023-01-07T10:50:03.647Z,978.89
2023-01-07T10:51:03.675Z,978.86
2023-01-07T10:52:03.701Z,978.92
2023-01-07T10:53:03.674Z,978.89
2023-01-07T10:54:03.610Z,978.86
2023-01-07T10:55:03.583Z,978.72
2023-01-07T10:56:03.577Z,978.86
2023-01-07T10:57:03.528Z,978.92
2023-01-07T10:58:03.541Z,978.75
2023-01-07T10:59:03.604Z,978.75
2023-01-07T11:00:03.441Z,978.69
2023-01-07T11:01:03.706Z,978.77
2023-01-07T11:02:04.589Z,978.83
2023-01-07T11:03:03.572Z,978.78
2023-01-07T11:04:03.562Z,978.72
2023-01-07T11:05:03.599Z,978.95
2023-01-07T11:06:03.610Z,978.83
2023-01-07T11:07:03.591Z,978.97
2023-01-07T11:08:03.384Z,978.89
2023-01-07T11:09:03.395Z,978.86
2023-01-07T11:10:03.394Z,978.75
2023-01-07T11:11:03.232Z,978.86
2023-01-07T11:12:03.288Z,978.72
2023-01-07T11:13:03.224Z,978.78
2023-01-07T11:14:03.211Z,978.72
2023-01-07T11:15:03.593Z,978.78
2023-01-07T11:16:03.518Z,978.83
2023-01-07T11:17:03.424Z,978.61
2023-01-07T11:18:03.477Z,978.55
2023-01-07T11:19:03.516Z,978.72
2023-01-07T11:20:03.528Z,978.66
2023-01-07T11:21:03.504Z,978.55
2023-01-07T11:22:03.394Z,978.72
2023-01-07T11:23:03.340Z,978.66
2023-01-07T11:24:03.356Z,978.60
2023-01-07T11:25:03.296Z,978.46
2023-01-07T11:26:03.435Z,978.44
2023-01-07T11:27:03.334Z,978.55
2023-01-07T11:28:03.223Z,978.52
2023-01-07T11:29:03.183Z,978.55
2023-01-07T11:30:03.052Z,978.36
2023-01-07T11:31:03.009Z,978.52
2023-01-07T11:32:03.023Z,978.39
2023-01-07T11:33:03.906Z,978.55
2023-01-07T11:34:05.078Z,978.46
2023-01-07T11:35:03.710Z,978.44
2023-01-07T11:36:03.388Z,978.36
2023-01-07T11:37:03.340Z,978.41
2023-01-07T11:38:03.289Z,978.27
2023-01-07T11:39:03.145Z,978.27
2023-01-07T11:40:03.040Z,978.41
2023-01-07T11:41:03.149Z,978.30
2023-01-07T11:42:03.039Z,978.32
2023-01-07T11:43:02.996Z,978.32
2023-01-07T11:44:02.966Z,978.30
2023-01-07T11:45:03.869Z,978.24
2023-01-07T11:46:23.460Z,978.15
2023-01-07T11:47:02.924Z,978.24
2023-01-07T11:48:02.996Z,978.04
2023-01-07T11:49:03.909Z,978.04
2023-01-07T11:50:02.948Z,978.07
2023-01-07T11:51:03.894Z,978.01
2023-01-07T11:52:03.788Z,978.01
2023-01-07T11:53:03.815Z,978.04
2023-01-07T11:54:04.070Z,978.09
2023-01-07T11:55:03.586Z,977.92
2023-01-07T11:56:03.718Z,978.01
2023-01-07T11:57:03.821Z,978.01
2023-01-07T11:58:30.881Z,977.89
2023-01-07T11:59:03.552Z,977.98
2023-01-07T12:00:03.446Z,977.98
2023-01-07T12:01:03.561Z,977.89
2023-01-07T12:02:03.431Z,977.89
2023-01-07T12:03:03.482Z,977.89
2023-01-07T12:04:03.346Z,977.86
2023-01-07T12:05:03.279Z,977.92
2023-01-07T12:06:03.206Z,977.89
2023-01-07T12:07:03.068Z,977.78
2023-01-07T12:08:02.969Z,977.86
2023-01-07T12:09:02.930Z,977.75
2023-01-07T12:10:03.904Z,977.95
2023-01-07T12:11:03.878Z,977.86
2023-01-07T12:12:03.860Z,977.78
2023-01-07T12:13:03.782Z,977.89
2023-01-07T12:14:03.852Z,977.81
2023-01-07T12:15:03.713Z,977.75
2023-01-07T12:16:03.767Z,977.81
2023-01-07T12:17:03.743Z,977.61
2023-01-07T12:18:03.646Z,977.83
2023-01-07T12:19:03.601Z,977.72
2023-01-07T12:20:03.476Z,977.59
2023-01-07T12:21:03.583Z,977.80
2023-01-07T12:22:03.631Z,977.69
2023-01-07T12:23:03.484Z,977.72
2023-01-07T12:24:03.479Z,977.66
2023-01-07T12:25:03.485Z,977.61
2023-01-07T12:26:03.349Z,977.53
2023-01-07T12:27:03.211Z,977.69
2023-01-07T12:28:03.205Z,977.61